createdAt,value
2022-08-30T00:00:39.573Z,19.04
2022-08-30T00:03:08.483Z,18.95
2022-08-30T00:05:36.658Z,18.94
2022-08-30T00:08:05.882Z,18.92
2022-08-30T00:10:34.169Z,18.87
2022-08-30T00:13:01.884Z,18.84
2022-08-30T00:15:30.255Z,18.79
2022-08-30T00:17:57.839Z,18.84
2022-08-30T00:20:28.579Z,18.81
2022-08-30T00:22:56.103Z,18.80
2022-08-30T00:25:25.135Z,18.71
2022-08-30T00:27:52.633Z,18.67
2022-08-30T00:30:20.949Z,18.61
2022-08-30T00:32:48.643Z,18.60
2022-08-30T00:35:20.443Z,18.58
2022-08-30T00:37:48.859Z,18.54
2022-08-30T00:40:17.551Z,18.49
2022-08-30T00:42:50.590Z,18.39
2022-08-30T00:45:22.374Z,18.30
2022-08-30T00:47:50.009Z,18.36
2022-08-30T00:50:20.340Z,18.32
2022-08-30T00:52:50.435Z,18.31
2022-08-30T00:55:18.973Z,18.27
2022-08-30T00:57:49.456Z,18.23
2022-08-30T01:00:17.740Z,18.23
2022-08-30T01:02:45.347Z,18.20
2022-08-30T01:05:16.749Z,18.16
2022-08-30T01:07:44.464Z,18.13
2022-08-30T01:10:16.669Z,18.14
2022-08-30T01:12:44.942Z,18.07
2022-08-30T01:15:15.436Z,18.01
2022-08-30T01:17:45.718Z,18.03
2022-08-30T01:20:15.799Z,18.00
2022-08-30T01:22:48.962Z,17.96
2022-08-30T01:25:20.852Z,17.95
2022-08-30T01:27:51.970Z,17.97
2022-08-30T01:30:19.831Z,17.98
2022-08-30T01:32:48.374Z,18.01
2022-08-30T01:35:18.231Z,17.93
2022-08-30T01:37:46.363Z,17.99
2022-08-30T01:40:15.016Z,17.95
2022-08-30T01:42:43.858Z,17.99
2022-08-30T01:45:12.142Z,17.91
2022-08-30T01:47:40.323Z,17.89
2022-08-30T01:50:09.145Z,17.98
2022-08-30T01:52:37.052Z,17.91
2022-08-30T01:55:05.243Z,17.88
2022-08-30T01:57:32.770Z,17.86
2022-08-30T02:00:01.651Z,17.84
2022-08-30T02:02:30.472Z,17.73
2022-08-30T02:04:58.522Z,17.73
2022-08-30T02:07:26.317Z,17.70
2022-08-30T02:09:54.751Z,17.75
2022-08-30T02:12:22.348Z,17.73
2022-08-30T02:14:49.882Z,17.70
2022-08-30T02:17:19.881Z,17.62
2022-08-30T02:19:47.655Z,17.57
2022-08-30T02:22:16.147Z,17.64
2022-08-30T02:24:43.655Z,17.63
2022-08-30T02:27:11.167Z,17.54
2022-08-30T02:29:38.951Z,17.56
2022-08-30T02:32:06.773Z,17.54
2022-08-30T02:34:35.638Z,17.51
2022-08-30T02:37:03.143Z,17.50
2022-08-30T02:39:30.666Z,17.64
2022-08-30T02:41:58.376Z,17.61
2022-08-30T02:44:25.884Z,17.62
2022-08-30T02:46:53.419Z,17.57
2022-08-30T02:49:33.059Z,17.52
2022-08-30T02:52:03.537Z,17.46
2022-08-30T02:54:33.102Z,17.46
2022-08-30T02:57:04.454Z,17.34
2022-08-30T02:59:32.559Z,17.37
2022-08-30T03:02:00.167Z,17.31
2022-08-30T03:04:27.649Z,17.20
2022-08-30T03:06:55.365Z,17.22
2022-08-30T03:09:24.545Z,17.17
2022-08-30T03:11:52.113Z,17.20
2022-08-30T03:14:19.710Z,17.15
2022-08-30T03:16:47.273Z,17.08
2022-08-30T03:19:14.886Z,17.02
2022-08-30T03:21:42.416Z,16.97
2022-08-30T03:24:09.892Z,16.97
2022-08-30T03:26:40.361Z,16.99
2022-08-30T03:29:10.709Z,17.04
2022-08-30T03:31:53.011Z,17.01
2022-08-30T03:34:21.996Z,17.04
2022-08-30T03:36:49.756Z,17.06
2022-08-30T03:39:17.310Z,17.02
2022-08-30T03:41:46.681Z,17.02
2022-08-30T03:44:14.173Z,17.03
2022-08-30T03:46:42.801Z,16.98
2022-08-30T03:49:10.306Z,17.00
2022-08-30T03:51:37.818Z,16.99
2022-08-30T03:54:05.441Z,16.93
2022-08-30T03:56:32.961Z,16.87
2022-08-30T03:59:01.938Z,16.86
2022-08-30T04:01:29.484Z,16.93
2022-08-30T04:03:57.594Z,17.00
2022-08-30T04:06:25.072Z,16.97
2022-08-30T04:08:52.581Z,16.88
2022-08-30T04:11:20.606Z,16.76
2022-08-30T04:13:49.387Z,16.76
2022-08-30T04:16:18.420Z,16.72
2022-08-30T04:18:45.961Z,16.64
2022-08-30T04:21:14.266Z,16.56
2022-08-30T04:23:41.842Z,16.51
2022-08-30T04:26:09.794Z,16.46
2022-08-30T04:28:37.296Z,16.44
2022-08-30T04:31:11.938Z,16.35
2022-08-30T04:33:41.429Z,16.29
2022-08-30T04:36:11.074Z,16.31
2022-08-30T04:38:39.181Z,16.33
2022-08-30T04:41:11.204Z,16.36
2022-08-30T04:43:39.409Z,16.41
2022-08-30T04:46:07.741Z,16.37
2022-08-30T04:48:35.994Z,16.37
2022-08-30T04:51:06.799Z,16.48
2022-08-30T04:53:34.467Z,16.42
2022-08-30T04:56:02.025Z,16.24
2022-08-30T04:58:29.492Z,16.37
2022-08-30T05:00:56.988Z,16.33
2022-08-30T05:03:24.505Z,16.31
2022-08-30T05:05:52.291Z,16.27
2022-08-30T05:08:24.597Z,16.32
2022-08-30T05:10:53.017Z,16.30
2022-08-30T05:13:26.271Z,16.32
2022-08-30T05:16:04.927Z,16.25
2022-08-30T05:18:32.479Z,16.25
2022-08-30T05:21:08.758Z,16.18
2022-08-30T05:23:37.996Z,16.19
2022-08-30T05:26:07.488Z,16.20
2022-08-30T05:28:35.584Z,16.22
2022-08-30T05:31:03.139Z,16.18
2022-08-30T05:33:30.645Z,16.25
2022-08-30T05:36:07.057Z,16.27
2022-08-30T05:38:34.596Z,16.30
2022-08-30T05:41:08.267Z,16.34
2022-08-30T05:43:38.914Z,16.38
2022-08-30T05:46:07.885Z,16.43
2022-08-30T05:48:37.194Z,16.53
2022-08-30T05:51:06.539Z,16.55
2022-08-30T05:53:34.077Z,16.73
2022-08-30T05:56:04.772Z,16.76
2022-08-30T05:58:32.672Z,16.88
2022-08-30T06:01:00.443Z,16.90
2022-08-30T06:03:28.943Z,17.06
2022-08-30T06:05:56.562Z,17.09
2022-08-30T06:08:24.057Z,17.18
2022-08-30T06:10:51.892Z,17.28
2022-08-30T06:13:20.700Z,17.33
2022-08-30T06:15:48.237Z,17.42
2022-08-30T06:18:15.887Z,17.44
2022-08-30T06:20:44.317Z,17.47
2022-08-30T06:23:20.001Z,17.54
2022-08-30T06:25:58.284Z,17.58
2022-08-30T06:28:44.106Z,17.61
2022-08-30T06:31:44.838Z,17.68
2022-08-30T06:34:46.447Z,17.80
2022-08-30T06:37:48.863Z,17.89
2022-08-30T06:40:49.946Z,18.02
2022-08-30T06:43:49.062Z,18.17
2022-08-30T06:46:55.756Z,18.27
2022-08-30T06:50:03.001Z,18.31
2022-08-30T06:52:27.693Z,18.40
2022-08-30T06:54:58.843Z,18.50
2022-08-30T06:57:27.150Z,18.56
2022-08-30T07:00:09.547Z,18.53
2022-08-30T07:02:48.969Z,18.66
2022-08-30T07:05:31.030Z,18.73
2022-08-30T07:08:09.444Z,18.74
2022-08-30T07:10:53.336Z,18.78
2022-08-30T07:13:48.790Z,18.89
2022-08-30T07:16:16.450Z,18.94
2022-08-30T07:18:56.440Z,18.98
2022-08-30T07:21:26.379Z,19.09
2022-08-30T07:23:54.803Z,19.25
2022-08-30T07:26:24.127Z,19.34
2022-08-30T07:28:52.320Z,19.43
2022-08-30T07:31:24.844Z,19.47
2022-08-30T07:33:54.044Z,19.52
2022-08-30T07:36:22.261Z,19.63
2022-08-30T07:38:50.456Z,19.73
2022-08-30T07:41:21.734Z,19.79
2022-08-30T07:43:49.345Z,19.82
2022-08-30T07:46:17.153Z,19.91
2022-08-30T07:48:44.783Z,19.90
2022-08-30T07:51:16.209Z,19.90
2022-08-30T07:53:43.874Z,19.95
2022-08-30T07:56:11.681Z,19.93
2022-08-30T07:58:39.710Z,20.00
2022-08-30T08:01:08.572Z,20.04
2022-08-30T08:03:36.367Z,20.11
2022-08-30T08:06:05.363Z,20.17
2022-08-30T08:08:34.762Z,20.16
2022-08-30T08:11:07.605Z,20.20
2022-08-30T08:13:45.195Z,20.29
2022-08-30T08:16:22.997Z,20.42
2022-08-30T08:18:50.640Z,20.50
2022-08-30T08:21:18.139Z,20.56
2022-08-30T08:23:47.065Z,20.61
2022-08-30T08:26:14.585Z,20.61
2022-08-30T08:28:42.427Z,20.67
2022-08-30T08:31:15.693Z,20.75
2022-08-30T08:33:43.287Z,20.93
2022-08-30T08:36:10.798Z,20.95
2022-08-30T08:38:38.313Z,21.08
2022-08-30T08:41:12.756Z,21.14
2022-08-30T08:43:41.068Z,21.26
2022-08-30T08:46:15.733Z,21.39
2022-08-30T08:48:59.439Z,21.51
2022-08-30T08:51:47.310Z,21.55
2022-08-30T08:54:22.569Z,21.51
2022-08-30T08:56:51.632Z,21.60
2022-08-30T08:59:19.303Z,21.65
2022-08-30T09:01:48.119Z,21.71
2022-08-30T09:04:20.634Z,21.82
2022-08-30T09:06:54.945Z,21.96
2022-08-30T09:09:25.659Z,22.01
2022-08-30T09:11:54.610Z,22.02
2022-08-30T09:14:25.433Z,22.15
2022-08-30T09:17:02.684Z,22.16
2022-08-30T09:19:40.809Z,22.33
2022-08-30T09:22:27.703Z,22.42
2022-08-30T09:25:01.398Z,22.50
2022-08-30T09:27:33.425Z,22.52
2022-08-30T09:30:05.032Z,22.57
2022-08-30T09:32:36.642Z,22.75
2022-08-30T09:35:07.214Z,22.79
2022-08-30T09:37:39.051Z,22.88
2022-08-30T09:40:14.435Z,22.96
2022-08-30T09:43:00.136Z,23.04
2022-08-30T09:45:32.802Z,23.05
2022-08-30T09:48:00.364Z,23.06
2022-08-30T09:50:32.172Z,23.25
2022-08-30T09:53:09.708Z,23.34
2022-08-30T09:55:48.991Z,23.42
2022-08-30T09:58:29.340Z,23.50
2022-08-30T10:01:04.711Z,23.57
2022-08-30T10:03:40.233Z,23.65
2022-08-30T10:06:13.955Z,23.73
2022-08-30T10:08:52.142Z,23.83
2022-08-30T10:11:27.424Z,23.86
2022-08-30T10:14:09.557Z,24.02
2022-08-30T10:16:46.409Z,24.10
2022-08-30T10:19:21.720Z,24.16
2022-08-30T10:21:53.723Z,24.16
2022-08-30T10:24:24.391Z,24.37
2022-08-30T10:26:55.603Z,24.40
2022-08-30T10:29:27.017Z,24.51
2022-08-30T10:31:57.649Z,24.55
2022-08-30T10:34:28.078Z,24.56
2022-08-30T10:36:58.226Z,24.70
2022-08-30T10:39:30.928Z,24.74
2022-08-30T10:42:04.382Z,24.78
2022-08-30T10:44:38.812Z,25.01
2022-08-30T10:47:23.343Z,25.10
2022-08-30T10:49:55.473Z,25.15
2022-08-30T10:52:27.477Z,25.23
2022-08-30T10:54:58.585Z,25.25
2022-08-30T10:57:26.324Z,25.33
2022-08-30T10:59:59.378Z,25.42
2022-08-30T11:02:50.047Z,25.56
2022-08-30T11:05:40.627Z,25.61
2022-08-30T11:08:20.434Z,25.55
2022-08-30T11:10:53.117Z,25.71
2022-08-30T11:13:24.337Z,25.69
2022-08-30T11:16:01.203Z,25.74
2022-08-30T11:18:30.205Z,25.77
2022-08-30T11:21:19.015Z,25.95
2022-08-30T11:24:00.211Z,25.99
2022-08-30T11:26:58.019Z,26.04
2022-08-30T11:29:32.681Z,26.01
2022-08-30T11:32:20.873Z,26.20
2022-08-30T11:34:56.617Z,26.28
2022-08-30T11:37:35.813Z,26.21
2022-08-30T11:40:07.692Z,26.33
2022-08-30T11:42:44.615Z,26.40
2022-08-30T11:45:44.324Z,26.52
2022-08-30T11:48:53.483Z,26.56
2022-08-30T11:55:01.539Z,26.76
2022-08-30T11:57:32.231Z,26.70
2022-08-30T12:00:08.128Z,26.82
2022-08-30T12:02:48.398Z,26.74
2022-08-30T12:05:51.945Z,26.86
2022-08-30T12:08:59.562Z,27.08
2022-08-30T12:12:01.395Z,27.07
2022-08-30T12:14:48.702Z,27.10
2022-08-30T12:17:40.018Z,27.25
2022-08-30T12:20:17.564Z,27.27
2022-08-30T12:22:46.575Z,27.15
2022-08-30T12:25:18.080Z,27.30
2022-08-30T12:27:45.722Z,27.37
2022-08-30T12:30:15.308Z,27.45
2022-08-30T12:32:47.323Z,27.41
2022-08-30T12:35:20.988Z,27.36
2022-08-30T12:38:01.610Z,27.54
2022-08-30T12:40:31.042Z,27.48
2022-08-30T12:43:01.041Z,27.48
2022-08-30T12:45:34.007Z,27.69
2022-08-30T12:48:05.710Z,27.51
2022-08-30T12:50:37.746Z,27.54
2022-08-30T12:53:13.541Z,27.73
2022-08-30T12:55:52.269Z,27.69
2022-08-30T12:58:35.811Z,27.70
2022-08-30T13:01:18.488Z,27.86
2022-08-30T13:03:56.700Z,27.89
2022-08-30T13:06:39.109Z,28.09
2022-08-30T13:09:08.633Z,28.15
2022-08-30T13:11:36.218Z,28.20
2022-08-30T13:14:32.819Z,28.16
2022-08-30T13:17:22.277Z,28.11
2022-08-30T13:20:01.637Z,28.18
2022-08-30T13:22:31.347Z,28.25
2022-08-30T13:25:01.361Z,28.32
2022-08-30T13:27:30.071Z,28.40
2022-08-30T13:29:59.415Z,28.58
2022-08-30T13:32:27.528Z,28.59
2022-08-30T13:34:55.011Z,28.63
2022-08-30T13:40:15.300Z,28.56
2022-08-30T13:42:43.004Z,28.64
2022-08-30T13:45:42.629Z,28.64
2022-08-30T13:48:01.225Z,28.60
2022-08-30T13:50:28.762Z,28.59
2022-08-30T13:52:58.197Z,28.65
2022-08-30T13:55:27.213Z,28.70
2022-08-30T13:57:56.611Z,28.67
2022-08-30T14:00:26.156Z,28.67
2022-08-30T14:02:56.081Z,28.58
2022-08-30T14:11:06.422Z,28.55
2022-08-30T14:13:33.997Z,28.56
2022-08-30T14:18:51.171Z,28.55
2022-08-30T14:21:21.226Z,28.60
2022-08-30T14:23:51.856Z,28.58
2022-08-30T14:26:42.595Z,28.60
2022-08-30T14:29:24.884Z,28.48
2022-08-30T14:32:56.547Z,28.36
2022-08-30T14:35:25.657Z,28.41
2022-08-30T14:38:05.921Z,28.40
2022-08-30T14:41:04.267Z,28.35
2022-08-30T14:44:28.036Z,28.42
2022-08-30T14:47:15.077Z,28.52
2022-08-30T14:49:53.759Z,28.59
2022-08-30T14:55:33.821Z,28.58
2022-08-30T14:58:17.636Z,28.64
2022-08-30T15:00:54.296Z,28.65
2022-08-30T15:03:38.294Z,28.70
2022-08-30T15:07:45.868Z,28.66
2022-08-30T15:12:29.235Z,28.65
2022-08-30T15:15:23.885Z,28.68
2022-08-30T15:22:15.946Z,28.61
2022-08-30T15:24:58.694Z,28.59
2022-08-30T15:27:28.782Z,28.54
2022-08-30T15:29:56.631Z,28.55
2022-08-30T15:32:24.394Z,28.47
2022-08-30T15:34:55.997Z,28.49
2022-08-30T15:37:25.534Z,28.55
2022-08-30T15:39:53.419Z,28.62
2022-08-30T15:42:21.434Z,28.64
2022-08-30T15:44:51.540Z,28.69
2022-08-30T15:47:20.461Z,28.65
2022-08-30T15:49:55.121Z,28.75
2022-08-30T15:52:22.593Z,28.80
2022-08-30T15:54:51.449Z,28.69
2022-08-30T15:57:19.004Z,28.65
2022-08-30T15:59:46.832Z,28.77
2022-08-30T16:02:14.371Z,28.76
2022-08-30T16:04:44.286Z,28.71
2022-08-30T16:07:13.987Z,28.68
2022-08-30T16:09:41.772Z,28.61
2022-08-30T16:12:10.826Z,28.59
2022-08-30T16:14:38.735Z,28.56
2022-08-30T16:17:06.400Z,28.53
2022-08-30T16:19:34.213Z,28.46
2022-08-30T16:22:01.805Z,28.45
2022-08-30T16:24:29.446Z,28.43
2022-08-30T16:26:57.310Z,28.38
2022-08-30T16:29:26.285Z,28.36
2022-08-30T16:31:54.046Z,28.34
2022-08-30T16:34:22.217Z,28.35
2022-08-30T16:36:50.000Z,28.35
2022-08-30T16:39:17.872Z,28.31
2022-08-30T16:41:46.440Z,28.29
2022-08-30T16:44:15.917Z,28.33
2022-08-30T16:46:52.577Z,28.33
2022-08-30T16:49:21.053Z,28.31
2022-08-30T16:51:50.644Z,28.35
2022-08-30T16:54:18.405Z,28.31
2022-08-30T16:56:46.016Z,28.29
2022-08-30T16:59:14.526Z,28.26
2022-08-30T17:01:43.332Z,28.24
2022-08-30T17:04:18.831Z,28.21
2022-08-30T17:06:47.740Z,28.28
2022-08-30T17:09:17.786Z,28.28
2022-08-30T17:11:45.614Z,28.28
2022-08-30T17:14:13.182Z,28.23
2022-08-30T17:16:42.179Z,28.05
2022-08-30T17:19:11.504Z,27.98
2022-08-30T17:21:40.490Z,27.96
2022-08-30T17:24:08.110Z,27.92
2022-08-30T17:26:37.504Z,27.92
2022-08-30T17:29:05.775Z,27.88
2022-08-30T17:31:35.682Z,27.85
2022-08-30T17:34:05.775Z,27.85
2022-08-30T17:36:35.582Z,27.80
2022-08-30T17:39:11.449Z,27.74
2022-08-30T17:41:39.897Z,27.76
2022-08-30T17:44:10.841Z,27.65
2022-08-30T17:46:38.413Z,27.63
2022-08-30T17:49:06.678Z,27.55
2022-08-30T17:51:40.762Z,27.51
2022-08-30T17:54:11.877Z,27.46
2022-08-30T17:56:53.237Z,27.43
2022-08-30T17:59:25.331Z,27.35
2022-08-30T18:02:03.778Z,27.28
2022-08-30T18:04:42.099Z,27.25
2022-08-30T18:07:13.756Z,27.10
2022-08-30T18:09:48.965Z,27.11
2022-08-30T18:13:12.564Z,27.01
2022-08-30T18:15:15.587Z,26.96
2022-08-30T18:17:57.714Z,26.97
2022-08-30T18:20:42.278Z,26.90
2022-08-30T18:23:18.995Z,26.84
2022-08-30T18:26:04.228Z,26.72
2022-08-30T18:28:38.453Z,26.73
2022-08-30T18:31:16.332Z,26.69
2022-08-30T18:33:48.822Z,26.66
2022-08-30T18:36:18.613Z,26.66
2022-08-30T18:39:05.835Z,26.50
2022-08-30T18:41:43.123Z,26.46
2022-08-30T18:44:27.262Z,26.40
2022-08-30T18:46:57.256Z,26.27
2022-08-30T18:49:27.173Z,26.26
2022-08-30T18:52:11.368Z,26.20
2022-08-30T18:54:52.783Z,26.09
2022-08-30T18:57:55.089Z,26.06
2022-08-30T19:00:25.182Z,26.01
2022-08-30T19:02:53.602Z,25.97
2022-08-30T19:05:40.008Z,25.89
2022-08-30T19:08:13.437Z,25.83
2022-08-30T19:10:43.220Z,25.75
2022-08-30T19:13:17.206Z,25.72
2022-08-30T19:16:29.260Z,25.63
2022-08-30T19:18:47.695Z,25.52
2022-08-30T19:21:34.097Z,25.45
2022-08-30T19:24:03.328Z,25.36
2022-08-30T19:27:00.987Z,25.29
2022-08-30T19:29:32.075Z,25.29
2022-08-30T19:32:07.314Z,25.24
2022-08-30T19:34:51.080Z,25.15
2022-08-30T19:37:30.630Z,25.10
2022-08-30T19:42:57.085Z,24.96
2022-08-30T19:45:26.058Z,24.95
2022-08-30T19:48:24.773Z,24.86
2022-08-30T19:51:10.420Z,24.75
2022-08-30T19:53:38.778Z,24.68
2022-08-30T19:56:07.020Z,24.67
2022-08-30T19:58:38.133Z,24.58
2022-08-30T20:01:25.584Z,24.57
2022-08-30T20:04:01.994Z,24.55
2022-08-30T20:06:32.721Z,24.50
2022-08-30T20:09:10.606Z,24.47
2022-08-30T20:11:43.244Z,24.42
2022-08-30T20:14:21.697Z,24.30
2022-08-30T20:16:53.487Z,24.26
2022-08-30T20:19:27.508Z,24.14
2022-08-30T20:22:07.916Z,24.12
2022-08-30T20:24:44.335Z,24.05
2022-08-30T20:27:13.605Z,24.00
2022-08-30T20:29:47.095Z,23.96
2022-08-30T20:32:16.821Z,23.86
2022-08-30T20:34:49.066Z,23.85
2022-08-30T20:37:19.310Z,23.83
2022-08-30T20:39:46.894Z,23.79
2022-08-30T20:42:14.424Z,23.78
2022-08-30T20:44:48.417Z,23.76
2022-08-30T20:47:35.262Z,23.64
2022-08-30T20:50:09.133Z,23.70
2022-08-30T20:52:44.338Z,23.70
2022-08-30T20:55:16.348Z,23.62
2022-08-30T20:57:50.978Z,23.57
2022-08-30T21:00:19.563Z,23.51
2022-08-30T21:02:58.568Z,23.44
2022-08-30T21:05:37.578Z,23.39
2022-08-30T21:08:13.105Z,23.34
2022-08-30T21:10:41.234Z,23.24
2022-08-30T21:13:13.848Z,23.19
2022-08-30T21:16:00.642Z,23.18
2022-08-30T21:18:34.160Z,23.17
2022-08-30T21:21:26.715Z,23.11
2022-08-30T21:24:12.731Z,23.05
2022-08-30T21:26:53.276Z,23.03
2022-08-30T21:29:30.393Z,22.98
2022-08-30T21:32:04.206Z,22.93
2022-08-30T21:34:58.679Z,22.86
2022-08-30T21:37:35.923Z,22.87
2022-08-30T21:40:34.278Z,22.76
2022-08-30T21:43:05.648Z,22.75
2022-08-30T21:45:41.102Z,22.63
2022-08-30T21:48:11.642Z,22.63
2022-08-30T21:50:45.396Z,22.59
2022-08-30T21:53:19.476Z,22.59
2022-08-30T21:55:57.993Z,22.57
2022-08-30T21:58:33.912Z,22.48
2022-08-30T22:01:12.047Z,22.55
2022-08-30T22:03:56.394Z,22.47
2022-08-30T22:06:30.909Z,22.43
2022-08-30T22:09:02.457Z,22.38
2022-08-30T22:12:18.043Z,22.30
2022-08-30T22:51:21.552Z,22.00
2022-08-30T23:29:05.166Z,21.76
2022-08-30T23:38:23.149Z,21.52
2022-08-30T23:41:08.426Z,21.49
2022-08-30T23:43:55.648Z,21.49
2022-08-30T23:46:41.048Z,21.49
2022-08-30T23:49:26.019Z,21.47
2022-08-30T23:52:11.061Z,21.46
2022-08-30T23:54:57.414Z,21.47
2022-08-30T23:57:43.125Z,21.43
